Wednesday, June 20, 2018, 6:23 PM EDT
Back to Local

KELM, Elmira County Airport

Location: Horseheads, NY, United States Lat: 42.167
Local Time: 6:23 PM EDT (22:23 GMT) Lon: -76.9
Time Zone: US/Eastern Elev: 954 ft

Show me the last for .
Show Decoded

2018-06-20 17:53 METAR KELM 202153Z 27005KT 10SM BKN060 21/14 A2983 RMK AO2 RAB2054E03 SLP096
                 P0000 T02110139 =
2018-06-20 16:53 METAR KELM 202053Z VRB04KT 10SM FEW065 OVC080 22/16 A2984 RMK AO2 RAE48 SLP101
                 P0000 60001 T02170156 58011 =
2018-06-20 15:53 METAR KELM 201953Z 30005KT 10SM -RA FEW060 OVC090 21/16 A2986 RMK AO2 SLP107
                 P0001 T02110161 =
2018-06-20 14:53 METAR KELM 201853Z 24003KT 10SM -RA OVC090 21/17 A2986 RMK AO2 SLP109 P0000
                 T02110167 =
2018-06-20 13:53 METAR KELM 201753Z 00000KT 10SM -RA OVC100 21/14 A2987 RMK AO2 RAB20 SLP112
                 P0000 60000 T02110144 10217 20156 56008 =
2018-06-20 12:53 METAR KELM 201653Z 00000KT 10SM OVC110 22/14 A2988 RMK AO2 SLP115 T02170139 =
2018-06-20 11:53 METAR KELM 201553Z 00000KT 10SM OVC110 21/13 A2989 RMK AO2 SLP118 T02110133 =
2018-06-20 10:53 METAR KELM 201453Z 00000KT 10SM OVC110 20/13 A2990 RMK AO2 SLP121 T02000133
                 56018 =
2018-06-20 09:53 METAR KELM 201353Z 00000KT 10SM OVC110 19/13 A2992 RMK AO2 SLP127 T01940128 =
2018-06-20 08:53 METAR KELM 201253Z 00000KT 10SM OVC100 17/13 A2993 RMK AO2 SLP132 T01720128 =
2018-06-20 07:53 METAR KELM 201153Z 00000KT 10SM OVC100 16/13 A2995 RMK AO2 SLP139 T01610128
                 10161 20133 53005 =
2018-06-20 06:53 METAR KELM 201053Z 00000KT 10SM OVC120 15/13 A2995 RMK AO2 SLP137 T01500128 =
2018-06-20 05:53 METAR KELM 200953Z 00000KT 10SM CLR 14/12 A2994 RMK AO2 SLP135 T01390122 =
2018-06-20 04:53 METAR KELM 200853Z AUTO 00000KT 10SM CLR 14/12 A2994 RMK AO2 SLP134 T01390122
                 55003 =
2018-06-20 03:53 METAR KELM 200753Z AUTO 00000KT 10SM CLR 14/12 A2993 RMK AO2 SLP131 T01390117 =
2018-06-20 02:53 METAR KELM 200653Z AUTO 22003KT 10SM CLR 14/12 A2994 RMK AO2 SLP134 T01440117 =
2018-06-20 01:53 METAR KELM 200553Z AUTO 00000KT 10SM CLR 14/11 A2995 RMK AO2 SLP137 T01440111
                 10206 20128 58007 =
2018-06-20 00:53 METAR KELM 200453Z AUTO 00000KT 10SM CLR 14/11 A2996 RMK AO2 SLP143 T01390111
                 402500133 =
2018-06-19 23:53 METAR KELM 200353Z 23004KT 10SM CLR 14/11 A2996 RMK AO2 SLP143 T01440111 =
2018-06-19 22:53 METAR KELM 200253Z 00000KT 10SM CLR 16/11 A2997 RMK AO2 SLP145 T01610111 53006 =
2018-06-19 21:53 METAR KELM 200153Z 09003KT 10SM CLR 18/09 A2996 RMK AO2 SLP143 T01830094 =
2018-06-19 20:53 METAR KELM 200053Z 04006KT 10SM CLR 19/09 A2995 RMK AO2 SLP138 T01890094 =
2018-06-19 19:53 METAR KELM 192353Z 02004KT 10SM CLR 21/09 A2995 RMK AO2 SLP137 T02060089 10250
                 20206 53002 =
2018-06-19 18:53 METAR KELM 192253Z 02006KT 10SM CLR 23/09 A2994 RMK AO2 SLP134 T02280094 =

Support USWX by starting your Amazon purchase here.